sensor_id;sensor_type;location;lat;lon;timestamp;pressure;altitude;pressure_sealevel;temperature;humidity
31717;BME280;18301;51.076;17.046;2023-02-08T00:02:42;102851.44;;;0.20;65.29
31717;BME280;18301;51.076;17.046;2023-02-08T00:07:44;102863.09;;;0.39;64.64
31717;BME280;18301;51.076;17.046;2023-02-08T00:12:45;102856.03;;;0.41;65.24
31717;BME280;18301;51.076;17.046;2023-02-08T00:17:46;102864.88;;;0.43;65.02
31717;BME280;18301;51.076;17.046;2023-02-08T00:22:48;102868.34;;;0.33;65.15
31717;BME280;18301;51.076;17.046;2023-02-08T00:27:51;102866.66;;;0.41;65.52
31717;BME280;18301;51.076;17.046;2023-02-08T00:32:52;102869.34;;;0.44;65.33
31717;BME280;18301;51.076;17.046;2023-02-08T00:37:54;102881.69;;;0.37;65.46
31717;BME280;18301;51.076;17.046;2023-02-08T00:42:55;102886.00;;;0.28;65.67
31717;BME280;18301;51.076;17.046;2023-02-08T00:47:56;102878.88;;;0.23;65.73
31717;BME280;18301;51.076;17.046;2023-02-08T00:52:58;102886.88;;;0.27;65.80
31717;BME280;18301;51.076;17.046;2023-02-08T00:58:00;102878.97;;;0.33;66.17
31717;BME280;18301;51.076;17.046;2023-02-08T01:03:01;102873.56;;;0.20;66.36
31717;BME280;18301;51.076;17.046;2023-02-08T01:08:03;102874.59;;;0.39;65.62
31717;BME280;18301;51.076;17.046;2023-02-08T01:13:05;102871.41;;;-0.20;66.61
31717;BME280;18301;51.076;17.046;2023-02-08T01:18:06;102876.97;;;0.04;65.98
31717;BME280;18301;51.076;17.046;2023-02-08T01:23:08;102874.25;;;-0.02;65.61
31717;BME280;18301;51.076;17.046;2023-02-08T01:28:09;102868.03;;;-0.01;65.86
31717;BME280;18301;51.076;17.046;2023-02-08T01:33:11;102855.81;;;0.13;65.83
31717;BME280;18301;51.076;17.046;2023-02-08T01:38:12;102858.28;;;-0.04;65.57
31717;BME280;18301;51.076;17.046;2023-02-08T01:43:22;102841.53;;;0.02;66.09
31717;BME280;18301;51.076;17.046;2023-02-08T01:48:31;102846.09;;;0.17;65.58
31717;BME280;18301;51.076;17.046;2023-02-08T01:53:34;102854.06;;;0.18;64.90
31717;BME280;18301;51.076;17.046;2023-02-08T01:58:40;102854.88;;;0.10;65.32
31717;BME280;18301;51.076;17.046;2023-02-08T02:03:44;102843.31;;;0.06;65.17
31717;BME280;18301;51.076;17.046;2023-02-08T02:14:16;102842.63;;;0.26;65.05
31717;BME280;18301;51.076;17.046;2023-02-08T02:19:30;102844.41;;;0.28;64.84
31717;BME280;18301;51.076;17.046;2023-02-08T02:24:57;102835.50;;;0.20;64.04
31717;BME280;18301;51.076;17.046;2023-02-08T02:36:02;102837.22;;;0.18;64.30
31717;BME280;18301;51.076;17.046;2023-02-08T02:41:05;102830.91;;;0.02;65.12
31717;BME280;18301;51.076;17.046;2023-02-08T02:51:24;102843.44;;;0.21;64.80
31717;BME280;18301;51.076;17.046;2023-02-08T02:56:34;102841.50;;;-0.01;65.69
31717;BME280;18301;51.076;17.046;2023-02-08T03:01:37;102840.81;;;0.20;64.89
31717;BME280;18301;51.076;17.046;2023-02-08T03:06:55;102839.91;;;0.16;65.33
31717;BME280;18301;51.076;17.046;2023-02-08T03:12:42;102841.69;;;0.20;65.10
31717;BME280;18301;51.076;17.046;2023-02-08T03:23:12;102839.69;;;-0.05;64.34
31717;BME280;18301;51.076;17.046;2023-02-08T03:33:23;102842.34;;;-0.04;64.13
31717;BME280;18301;51.076;17.046;2023-02-08T03:38:32;102845.09;;;0.04;63.93
31717;BME280;18301;51.076;17.046;2023-02-08T03:43:39;102862.81;;;0.08;63.87
31717;BME280;18301;51.076;17.046;2023-02-08T03:48:51;102869.84;;;0.00;64.13
31717;BME280;18301;51.076;17.046;2023-02-08T03:53:56;102870.66;;;-0.09;64.47
31717;BME280;18301;51.076;17.046;2023-02-08T03:59:00;102870.56;;;-0.16;65.05
31717;BME280;18301;51.076;17.046;2023-02-08T04:04:04;102874.97;;;-0.18;65.24
31717;BME280;18301;51.076;17.046;2023-02-08T04:09:06;102871.41;;;-0.20;65.62
31717;BME280;18301;51.076;17.046;2023-02-08T04:14:08;102868.03;;;-0.06;65.39
31717;BME280;18301;51.076;17.046;2023-02-08T04:19:09;102869.13;;;0.19;65.19
31717;BME280;18301;51.076;17.046;2023-02-08T04:24:11;102869.06;;;0.15;65.37
31717;BME280;18301;51.076;17.046;2023-02-08T04:29:12;102867.38;;;0.23;65.35
31717;BME280;18301;51.076;17.046;2023-02-08T04:34:14;102866.53;;;0.26;65.53
31717;BME280;18301;51.076;17.046;2023-02-08T04:39:15;102864.81;;;0.37;65.86
31717;BME280;18301;51.076;17.046;2023-02-08T04:44:17;102863.91;;;0.30;65.72
31717;BME280;18301;51.076;17.046;2023-02-08T04:49:18;102861.25;;;0.29;65.43
31717;BME280;18301;51.076;17.046;2023-02-08T04:54:20;102867.47;;;0.34;65.28
31717;BME280;18301;51.076;17.046;2023-02-08T04:59:21;102863.06;;;0.36;65.40
31717;BME280;18301;51.076;17.046;2023-02-08T05:04:23;102857.78;;;0.42;65.56
31717;BME280;18301;51.076;17.046;2023-02-08T05:09:24;102851.56;;;0.38;65.81
31717;BME280;18301;51.076;17.046;2023-02-08T05:14:26;102845.44;;;0.44;65.23
31717;BME280;18301;51.076;17.046;2023-02-08T05:19:27;102838.13;;;0.18;65.50
31717;BME280;18301;51.076;17.046;2023-02-08T05:24:29;102844.31;;;0.16;65.38
31717;BME280;18301;51.076;17.046;2023-02-08T05:29:30;102847.78;;;0.07;65.57
31717;BME280;18301;51.076;17.046;2023-02-08T05:34:32;102863.63;;;-0.01;65.43
31717;BME280;18301;51.076;17.046;2023-02-08T05:39:33;102869.75;;;-0.09;66.05
31717;BME280;18301;51.076;17.046;2023-02-08T05:44:35;102873.16;;;-0.19;66.38
31717;BME280;18301;51.076;17.046;2023-02-08T05:49:36;102875.78;;;-0.24;66.49
31717;BME280;18301;51.076;17.046;2023-02-08T05:54:37;102873.94;;;-0.33;66.95
31717;BME280;18301;51.076;17.046;2023-02-08T05:59:39;102869.44;;;-0.40;66.86
31717;BME280;18301;51.076;17.046;2023-02-08T06:04:40;102887.03;;;-0.47;66.99
31717;BME280;18301;51.076;17.046;2023-02-08T06:09:42;102887.88;;;-0.51;67.05
31717;BME280;18301;51.076;17.046;2023-02-08T06:14:43;102881.59;;;-0.56;67.63
31717;BME280;18301;51.076;17.046;2023-02-08T06:19:45;102887.78;;;-0.58;67.49
31717;BME280;18301;51.076;17.046;2023-02-08T06:24:46;102888.63;;;-0.59;67.86
31717;BME280;18301;51.076;17.046;2023-02-08T06:29:48;102879.75;;;-0.64;67.82
31717;BME280;18301;51.076;17.046;2023-02-08T06:34:50;102876.09;;;-0.73;67.98
31717;BME280;18301;51.076;17.046;2023-02-08T06:39:51;102879.56;;;-0.80;68.58
31717;BME280;18301;51.076;17.046;2023-02-08T06:44:53;102895.47;;;-0.80;68.25
31717;BME280;18301;51.076;17.046;2023-02-08T06:49:56;102897.13;;;-0.88;68.30
31717;BME280;18301;51.076;17.046;2023-02-08T06:54:57;102893.59;;;-0.87;68.54
31717;BME280;18301;51.076;17.046;2023-02-08T06:59:59;102898.97;;;-0.82;68.93
31717;BME280;18301;51.076;17.046;2023-02-08T07:05:00;102912.31;;;-0.75;69.02
31717;BME280;18301;51.076;17.046;2023-02-08T07:10:01;102918.63;;;-0.66;68.78
31717;BME280;18301;51.076;17.046;2023-02-08T07:15:03;102936.34;;;-0.62;69.11
31717;BME280;18301;51.076;17.046;2023-02-08T07:20:05;102941.75;;;-0.53;68.66
31717;BME280;18301;51.076;17.046;2023-02-08T07:25:07;102940.97;;;-0.48;69.18
31717;BME280;18301;51.076;17.046;2023-02-08T07:30:09;102945.50;;;-0.37;69.48
31717;BME280;18301;51.076;17.046;2023-02-08T07:35:11;102951.81;;;-0.29;69.38
31717;BME280;18301;51.076;17.046;2023-02-08T07:40:12;102957.25;;;-0.17;69.23
31717;BME280;18301;51.076;17.046;2023-02-08T07:45:14;102959.09;;;-0.10;69.05
31717;BME280;18301;51.076;17.046;2023-02-08T07:50:15;102967.19;;;0.01;69.13
31717;BME280;18301;51.076;17.046;2023-02-08T07:55:17;102973.50;;;0.11;69.05
31717;BME280;18301;51.076;17.046;2023-02-08T08:00:19;102966.47;;;0.16;68.83
31717;BME280;18301;51.076;17.046;2023-02-08T08:05:20;102978.84;;;0.14;69.44
31717;BME280;18301;51.076;17.046;2023-02-08T08:10:22;102967.44;;;0.22;69.53
31717;BME280;18301;51.076;17.046;2023-02-08T08:15:23;102965.84;;;0.46;69.46
31717;BME280;18301;51.076;17.046;2023-02-08T08:20:25;102977.66;;;0.77;68.76
31717;BME280;18301;51.076;17.046;2023-02-08T08:25:27;102969.63;;;0.68;69.30
31717;BME280;18301;51.076;17.046;2023-02-08T08:30:28;102970.44;;;0.64;69.35
31717;BME280;18301;51.076;17.046;2023-02-08T08:35:30;102966.13;;;0.77;69.11
31717;BME280;18301;51.076;17.046;2023-02-08T08:40:31;102967.06;;;0.80;69.25
31717;BME280;18301;51.076;17.046;2023-02-08T08:45:33;102962.66;;;0.84;69.45
31717;BME280;18301;51.076;17.046;2023-02-08T08:50:36;102955.69;;;1.04;69.23
31717;BME280;18301;51.076;17.046;2023-02-08T08:55:39;102948.72;;;1.20;68.60
31717;BME280;18301;51.076;17.046;2023-02-08T09:00:41;102969.91;;;1.09;69.33
31717;BME280;18301;51.076;17.046;2023-02-08T09:05:42;102964.69;;;1.22;69.02
31717;BME280;18301;51.076;17.046;2023-02-08T09:10:44;102969.13;;;1.21;68.55
31717;BME280;18301;51.076;17.046;2023-02-08T09:15:47;102969.97;;;1.19;69.02
31717;BME280;18301;51.076;17.046;2023-02-08T09:20:49;102966.50;;;1.32;67.96
31717;BME280;18301;51.076;17.046;2023-02-08T09:25:50;102964.81;;;1.46;68.31
31717;BME280;18301;51.076;17.046;2023-02-08T09:30:51;102969.25;;;1.46;68.30
31717;BME280;18301;51.076;17.046;2023-02-08T09:35:53;102971.94;;;1.53;67.96
31717;BME280;18301;51.076;17.046;2023-02-08T09:46:15;102973.66;;;1.42;68.38
31717;BME280;18301;51.076;17.046;2023-02-08T09:56:29;102961.09;;;1.17;68.69
31717;BME280;18301;51.076;17.046;2023-02-08T10:01:34;102967.41;;;1.35;68.16
31717;BME280;18301;51.076;17.046;2023-02-08T10:06:36;102958.41;;;1.09;69.18
31717;BME280;18301;51.076;17.046;2023-02-08T10:11:43;102957.63;;;1.30;68.86
31717;BME280;18301;51.076;17.046;2023-02-08T10:27:22;102947.03;;;1.36;68.92
31717;BME280;18301;51.076;17.046;2023-02-08T10:32:35;102933.75;;;1.47;68.91
31717;BME280;18301;51.076;17.046;2023-02-08T10:37:41;102936.41;;;1.47;69.25
31717;BME280;18301;51.076;17.046;2023-02-08T10:42:47;102939.09;;;1.47;68.99
31717;BME280;18301;51.076;17.046;2023-02-08T10:47:54;102933.75;;;1.44;69.32
31717;BME280;18301;51.076;17.046;2023-02-08T10:52:56;102926.66;;;1.47;69.69
31717;BME280;18301;51.076;17.046;2023-02-08T10:58:03;102927.59;;;1.58;69.68
31717;BME280;18301;51.076;17.046;2023-02-08T11:03:26;102923.25;;;1.87;69.59
31717;BME280;18301;51.076;17.046;2023-02-08T11:08:28;102926.81;;;1.79;69.03
31717;BME280;18301;51.076;17.046;2023-02-08T11:13:43;102919.72;;;1.91;69.02
31717;BME280;18301;51.076;17.046;2023-02-08T11:18:48;102915.31;;;1.97;69.46
31717;BME280;18301;51.076;17.046;2023-02-08T11:23:52;102893.06;;;1.74;69.83
31717;BME280;18301;51.076;17.046;2023-02-08T11:34:26;102887.81;;;2.27;69.32
31717;BME280;18301;51.076;17.046;2023-02-08T11:39:38;102882.50;;;2.26;69.25
31717;BME280;18301;51.076;17.046;2023-02-08T11:44:42;102870.94;;;2.30;69.46
31717;BME280;18301;51.076;17.046;2023-02-08T11:49:52;102866.47;;;2.49;69.34
31717;BME280;18301;51.076;17.046;2023-02-08T11:55:22;102878.00;;;2.74;68.43
31717;BME280;18301;51.076;17.046;2023-02-08T12:00:29;102867.41;;;2.46;68.50
31717;BME280;18301;51.076;17.046;2023-02-08T12:05:35;102878.03;;;2.36;69.15
31717;BME280;18301;51.076;17.046;2023-02-08T12:11:14;102881.59;;;2.45;68.27
31717;BME280;18301;51.076;17.046;2023-02-08T12:22:27;102881.50;;;1.69;71.30
31717;BME280;18301;51.076;17.046;2023-02-08T12:27:33;102871.75;;;1.74;71.04
31717;BME280;18301;51.076;17.046;2023-02-08T12:38:19;102870.78;;;1.50;72.21
31717;BME280;18301;51.076;17.046;2023-02-08T12:59:36;102857.59;;;2.05;67.66
31717;BME280;18301;51.076;17.046;2023-02-08T13:04:42;102841.63;;;2.07;67.66
31717;BME280;18301;51.076;17.046;2023-02-08T13:15:14;102840.72;;;2.11;67.22
31717;BME280;18301;51.076;17.046;2023-02-08T13:20:52;102832.75;;;2.08;67.39
31717;BME280;18301;51.076;17.046;2023-02-08T13:26:14;102833.66;;;2.13;68.02
31717;BME280;18301;51.076;17.046;2023-02-08T13:31:22;102830.94;;;2.42;67.37
31717;BME280;18301;51.076;17.046;2023-02-08T13:36:27;102827.34;;;2.69;64.90
31717;BME280;18301;51.076;17.046;2023-02-08T13:41:32;102821.97;;;2.86;64.59
31717;BME280;18301;51.076;17.046;2023-02-08T13:46:36;102824.69;;;2.71;64.34
31717;BME280;18301;51.076;17.046;2023-02-08T13:51:52;102829.19;;;2.38;65.34
31717;BME280;18301;51.076;17.046;2023-02-08T13:56:54;102829.19;;;2.21;65.52
31717;BME280;18301;51.076;17.046;2023-02-08T14:12:29;102814.97;;;2.08;66.65
31717;BME280;18301;51.076;17.046;2023-02-08T14:17:35;102814.97;;;2.30;67.61
31717;BME280;18301;51.076;17.046;2023-02-08T14:22:48;102804.28;;;2.48;67.08
31717;BME280;18301;51.076;17.046;2023-02-08T14:27:53;102803.34;;;2.65;66.29
31717;BME280;18301;51.076;17.046;2023-02-08T14:43:35;102781.22;;;2.37;65.22
31717;BME280;18301;51.076;17.046;2023-02-08T14:48:43;102790.13;;;2.28;65.29
31717;BME280;18301;51.076;17.046;2023-02-08T14:53:56;102783.03;;;2.25;65.28
31717;BME280;18301;51.076;17.046;2023-02-08T14:59:01;102783.91;;;1.98;66.01
31717;BME280;18301;51.076;17.046;2023-02-08T15:04:05;102784.78;;;1.87;66.38
31717;BME280;18301;51.076;17.046;2023-02-08T15:09:20;102783.88;;;1.61;67.37
31717;BME280;18301;51.076;17.046;2023-02-08T15:14:22;102787.41;;;1.45;68.20
31717;BME280;18301;51.076;17.046;2023-02-08T15:19:31;102786.50;;;1.45;67.43
31717;BME280;18301;51.076;17.046;2023-02-08T15:24:34;102792.72;;;1.47;67.76
31717;BME280;18301;51.076;17.046;2023-02-08T15:29:40;102787.41;;;1.45;68.31
31717;BME280;18301;51.076;17.046;2023-02-08T15:34:49;102782.09;;;1.45;68.31
31717;BME280;18301;51.076;17.046;2023-02-08T15:39:56;102792.75;;;1.48;68.11
31717;BME280;18301;51.076;17.046;2023-02-08T15:44:59;102788.31;;;1.56;67.88
31717;BME280;18301;51.076;17.046;2023-02-08T15:50:06;102776.78;;;1.54;68.18
31717;BME280;18301;51.076;17.046;2023-02-08T15:55:14;102789.19;;;1.55;68.99
31717;BME280;18301;51.076;17.046;2023-02-08T16:00:19;102785.63;;;1.47;68.25
31717;BME280;18301;51.076;17.046;2023-02-08T16:05:25;102783.84;;;1.43;68.73
31717;BME280;18301;51.076;17.046;2023-02-08T16:10:31;102758.97;;;1.26;68.72
31717;BME280;18301;51.076;17.046;2023-02-08T16:15:43;102773.22;;;1.43;68.56
31717;BME280;18301;51.076;17.046;2023-02-08T16:20:55;102766.03;;;1.11;69.17
31717;BME280;18301;51.076;17.046;2023-02-08T16:26:11;102766.91;;;1.10;69.34
31717;BME280;18301;51.076;17.046;2023-02-08T16:31:21;102765.13;;;1.03;69.54
31717;BME280;18301;51.076;17.046;2023-02-08T16:36:26;102773.97;;;1.01;69.97
31717;BME280;18301;51.076;17.046;2023-02-08T16:47:25;102771.31;;;0.96;69.81
31717;BME280;18301;51.076;17.046;2023-02-08T16:52:27;102771.31;;;0.96;69.92
31717;BME280;18301;51.076;17.046;2023-02-08T16:57:43;102771.28;;;0.93;70.25
31717;BME280;18301;51.076;17.046;2023-02-08T17:02:45;102767.72;;;0.89;70.09
31717;BME280;18301;51.076;17.046;2023-02-08T17:07:47;102758.84;;;0.86;69.87
31717;BME280;18301;51.076;17.046;2023-02-08T17:12:49;102764.03;;;0.64;70.30
31717;BME280;18301;51.076;17.046;2023-02-08T17:17:51;102757.81;;;0.58;70.74
31717;BME280;18301;51.076;17.046;2023-02-08T17:22:55;102758.69;;;0.55;71.03
31717;BME280;18301;51.076;17.046;2023-02-08T17:28:02;102763.91;;;0.40;71.48
31717;BME280;18301;51.076;17.046;2023-02-08T17:33:04;102764.78;;;0.34;71.68
31717;BME280;18301;51.076;17.046;2023-02-08T17:38:10;102753.31;;;0.43;71.58
31717;BME280;18301;51.076;17.046;2023-02-08T17:43:12;102753.28;;;0.40;71.80
31717;BME280;18301;51.076;17.046;2023-02-08T17:48:14;102755.03;;;0.35;71.81
31717;BME280;18301;51.076;17.046;2023-02-08T17:53:16;102762.06;;;0.30;72.33
31717;BME280;18301;51.076;17.046;2023-02-08T17:58:18;102748.84;;;0.34;72.04
31717;BME280;18301;51.076;17.046;2023-02-08T18:03:20;102750.56;;;0.31;72.18
31717;BME280;18301;51.076;17.046;2023-02-08T18:08:21;102754.09;;;0.25;72.37
31717;BME280;18301;51.076;17.046;2023-02-08T18:13:23;102749.59;;;0.16;72.72
31717;BME280;18301;51.076;17.046;2023-02-08T18:18:24;102745.09;;;0.05;73.16
31717;BME280;18301;51.076;17.046;2023-02-08T18:23:26;102749.53;;;0.04;73.43
31717;BME280;18301;51.076;17.046;2023-02-08T18:28:28;102732.69;;;0.02;73.34
31717;BME280;18301;51.076;17.046;2023-02-08T18:33:30;102737.00;;;-0.15;74.11
31717;BME280;18301;51.076;17.046;2023-02-08T18:38:32;102728.16;;;-0.11;74.19
31717;BME280;18301;51.076;17.046;2023-02-08T18:43:33;102722.72;;;-0.30;74.37
31717;BME280;18301;51.076;17.046;2023-02-08T18:48:36;102726.16;;;-0.40;74.32
31717;BME280;18301;51.076;17.046;2023-02-08T18:53:40;102711.16;;;-0.36;74.35
31717;BME280;18301;51.076;17.046;2023-02-08T18:58:42;102713.72;;;-0.44;74.96
31717;BME280;18301;51.076;17.046;2023-02-08T19:03:43;102711.13;;;-0.38;74.08
31717;BME280;18301;51.076;17.046;2023-02-08T19:08:45;102698.81;;;-0.33;74.23
31717;BME280;18301;51.076;17.046;2023-02-08T19:13:47;102701.47;;;-0.33;74.28
31717;BME280;18301;51.076;17.046;2023-02-08T19:18:50;102696.03;;;-0.48;73.95
31717;BME280;18301;51.076;17.046;2023-02-08T19:23:53;102697.84;;;-0.41;74.25
31717;BME280;18301;51.076;17.046;2023-02-08T19:28:59;102691.59;;;-0.48;74.00
31717;BME280;18301;51.076;17.046;2023-02-08T19:34:01;102697.88;;;-0.38;73.82
31717;BME280;18301;51.076;17.046;2023-02-08T19:39:04;102699.72;;;-0.31;73.97
31717;BME280;18301;51.076;17.046;2023-02-08T19:44:08;102703.28;;;-0.26;73.25
31717;BME280;18301;51.076;17.046;2023-02-08T19:49:11;102715.72;;;-0.21;73.23
31717;BME280;18301;51.076;17.046;2023-02-08T19:54:15;102703.28;;;-0.27;73.18
31717;BME280;18301;51.076;17.046;2023-02-08T19:59:25;102701.41;;;-0.39;73.18
31717;BME280;18301;51.076;17.046;2023-02-08T20:04:27;102699.69;;;-0.34;72.99
31717;BME280;18301;51.076;17.046;2023-02-08T20:09:29;102699.69;;;-0.34;73.37
31717;BME280;18301;51.076;17.046;2023-02-08T20:14:30;102685.47;;;-0.42;73.25
31717;BME280;18301;51.076;17.046;2023-02-08T20:19:35;102688.06;;;-0.48;73.35
31717;BME280;18301;51.076;17.046;2023-02-08T20:24:37;102688.88;;;-0.58;73.70
31717;BME280;18301;51.076;17.046;2023-02-08T20:29:38;102680.75;;;-0.75;73.67
31717;BME280;18301;51.076;17.046;2023-02-08T20:34:40;102691.25;;;-0.84;74.06
31717;BME280;18301;51.076;17.046;2023-02-08T20:39:59;102680.69;;;-0.83;74.35
31717;BME280;18301;51.076;17.046;2023-02-08T20:45:00;102682.53;;;-0.73;74.07
31717;BME280;18301;51.076;17.046;2023-02-08T20:50:03;102678.19;;;-0.67;74.04
31717;BME280;18301;51.076;17.046;2023-02-08T20:55:19;102673.69;;;-0.73;73.66
31717;BME280;18301;51.076;17.046;2023-02-08T21:00:20;102667.50;;;-0.72;74.03
31717;BME280;18301;51.076;17.046;2023-02-08T21:05:33;102659.53;;;-0.77;73.83
31717;BME280;18301;51.076;17.046;2023-02-08T21:10:35;102660.34;;;-0.81;74.03
31717;BME280;18301;51.076;17.046;2023-02-08T21:15:41;102658.47;;;-0.94;74.03
31717;BME280;18301;51.076;17.046;2023-02-08T21:20:43;102653.13;;;-1.00;74.71
31717;BME280;18301;51.076;17.046;2023-02-08T21:25:45;102658.44;;;-0.97;74.32
31717;BME280;18301;51.076;17.046;2023-02-08T21:30:57;102641.50;;;-1.11;74.49
31717;BME280;18301;51.076;17.046;2023-02-08T21:36:04;102645.00;;;-1.16;75.10
31717;BME280;18301;51.076;17.046;2023-02-08T21:41:16;102627.34;;;-1.15;74.67
31717;BME280;18301;51.076;17.046;2023-02-08T21:46:21;102634.28;;;-1.26;74.26
31717;BME280;18301;51.076;17.046;2023-02-08T21:51:25;102634.28;;;-1.26;74.38
31717;BME280;18301;51.076;17.046;2023-02-08T21:56:45;102630.63;;;-1.36;74.90
31717;BME280;18301;51.076;17.046;2023-02-08T22:01:46;102633.19;;;-1.45;74.91
31717;BME280;18301;51.076;17.046;2023-02-08T22:06:48;102630.50;;;-1.50;74.74
31717;BME280;18301;51.076;17.046;2023-02-08T22:11:49;102621.59;;;-1.56;74.79
31717;BME280;18301;51.076;17.046;2023-02-08T22:16:51;102619.66;;;-1.70;75.42
31717;BME280;18301;51.076;17.046;2023-02-08T22:21:52;102612.44;;;-1.83;75.26
31717;BME280;18301;51.076;17.046;2023-02-08T22:26:54;102621.25;;;-1.82;75.62
31717;BME280;18301;51.076;17.046;2023-02-08T22:31:56;102612.44;;;-1.84;75.76
31717;BME280;18301;51.076;17.046;2023-02-08T22:36:57;102600.81;;;-1.94;75.26
31717;BME280;18301;51.076;17.046;2023-02-08T22:41:59;102600.81;;;-1.94;75.66
31717;BME280;18301;51.076;17.046;2023-02-08T22:47:01;102606.25;;;-1.82;75.14
31717;BME280;18301;51.076;17.046;2023-02-08T22:52:04;102594.75;;;-1.86;74.94
31717;BME280;18301;51.076;17.046;2023-02-08T22:57:06;102585.03;;;-1.85;75.14
31717;BME280;18301;51.076;17.046;2023-02-08T23:02:09;102578.84;;;-1.89;74.90
31717;BME280;18301;51.076;17.046;2023-02-08T23:07:11;102570.78;;;-1.98;75.21
31717;BME280;18301;51.076;17.046;2023-02-08T23:12:12;102572.53;;;-1.98;75.11
31717;BME280;18301;51.076;17.046;2023-02-08T23:17:14;102565.47;;;-1.99;75.27
31717;BME280;18301;51.076;17.046;2023-02-08T23:22:16;102564.88;;;-1.78;75.05
31717;BME280;18301;51.076;17.046;2023-02-08T23:27:17;102555.19;;;-1.75;74.67
31717;BME280;18301;51.076;17.046;2023-02-08T23:32:19;102547.13;;;-1.86;74.34
31717;BME280;18301;51.076;17.046;2023-02-08T23:37:20;102549.72;;;-1.90;74.16
31717;BME280;18301;51.076;17.046;2023-02-08T23:42:22;102543.59;;;-1.88;74.38
31717;BME280;18301;51.076;17.046;2023-02-08T23:47:29;102533.81;;;-1.93;74.20
31717;BME280;18301;51.076;17.046;2023-02-08T23:52:32;102516.97;;;-1.98;74.71
31717;BME280;18301;51.076;17.046;2023-02-08T23:57:35;102529.13;;;-2.13;74.40
